Time;durP1;ratioP1;P1;durP2;ratioP2;P2;SDS_P1;SDS_P2;PMS_P1;PMS_P2;Temp;Humidity;BMP_temperature;BMP_pressure;BME280_temperature;BME280_humidity;BME280_pressure;Samples;Min_cycle;Max_cycle;Signal;HPM_P1;HPM_P2
2022/09/19 00:03:10;;;;;;;14.07;3.20;;;11.50;99.90;;;;;;5613164;22;20076;-64
2022/09/19 00:05:40;;;;;;;10.77;2.08;;;11.50;99.90;;;;;;5047077;28;20503;-64
2022/09/19 00:08:07;;;;;;;6.03;1.55;;;11.50;99.90;;;;;;5053331;28;20036;-64
2022/09/19 00:10:40;;;;;;;12.80;2.38;;;11.60;99.90;;;;;;5054317;28;20102;-64
2022/09/19 00:13:07;;;;;;;7.82;1.25;;;11.60;99.90;;;;;;5043909;28;20462;-64
2022/09/19 00:18:08;;;;;;;9.30;1.83;;;11.60;99.90;;;;;;5067489;22;20060;-66
2022/09/19 00:20:40;;;;;;;8.90;2.00;;;11.60;99.90;;;;;;5044728;28;20045;-66
2022/09/19 00:26:04;;;;;;;5.85;1.58;;;11.60;99.90;;;;;;5054031;28;20037;-67
2022/09/19 00:28:30;;;;;;;14.93;2.42;;;11.50;99.90;;;;;;5039816;28;20506;-66
2022/09/19 00:30:57;;;;;;;11.80;2.10;;;11.50;99.90;;;;;;5052175;28;20057;-66
2022/09/19 00:33:27;;;;;;;9.40;1.70;;;11.50;99.90;;;;;;5053780;28;20059;-67
2022/09/19 00:35:54;;;;;;;12.48;2.58;;;11.50;99.90;;;;;;5053721;28;20098;-66
2022/09/19 00:38:25;;;;;;;8.70;1.70;;;11.50;99.90;;;;;;5050677;28;20085;-66
2022/09/19 00:40:51;;;;;;;3.67;1.40;;;11.40;99.90;;;;;;5052230;28;20033;-66
2022/09/19 00:43:19;;;;;;;7.57;1.67;;;11.40;99.90;;;;;;5053538;28;20163;-66
2022/09/19 00:45:45;;;;;;;13.18;1.80;;;11.40;99.90;;;;;;5048639;28;20429;-66
2022/09/19 00:48:14;;;;;;;8.38;1.70;;;11.40;99.90;;;;;;5052884;28;20533;-67
2022/09/19 00:50:41;;;;;;;8.68;1.63;;;11.40;99.90;;;;;;5053407;28;20041;-67
2022/09/19 00:53:11;;;;;;;9.98;1.95;;;11.50;99.90;;;;;;5048273;28;20854;-66
2022/09/19 00:55:39;;;;;;;8.90;1.70;;;11.50;99.90;;;;;;5034665;28;20148;-67
2022/09/19 00:58:38;;;;;;;5.90;1.40;;;11.50;99.90;;;;;;5052496;28;20457;-67
2022/09/19 01:01:03;;;;;;;8.55;1.38;;;11.50;99.90;;;;;;5032336;28;20045;-66
2022/09/19 01:03:30;;;;;;;12.25;1.35;;;11.50;99.90;;;;;;5025654;28;20045;-66
2022/09/19 01:05:58;;;;;;;6.40;1.80;;;11.40;99.90;;;;;;5034566;28;20114;-67
2022/09/19 01:08:45;;;;;;;7.85;1.60;;;11.40;99.90;;;;;;5053007;28;20052;-67
2022/09/19 01:11:11;;;;;;;8.35;1.73;;;11.50;99.90;;;;;;5029947;28;20041;-66
2022/09/19 01:14:14;;;;;;;13.18;2.45;;;11.40;99.90;;;;;;5050215;28;20450;-66
2022/09/19 01:16:50;;;;;;;14.05;2.45;;;11.50;99.90;;;;;;5052225;28;20048;-67
2022/09/19 01:20:03;;;;;;;14.32;2.30;;;11.50;99.90;;;;;;5040376;28;20041;-66
2022/09/19 01:22:51;;;;;;;9.30;1.83;;;11.50;99.90;;;;;;5014590;28;20052;-66
2022/09/19 01:25:46;;;;;;;10.43;2.20;;;11.50;99.90;;;;;;5034788;28;20044;-67
2022/09/19 01:28:18;;;;;;;12.18;2.03;;;11.50;99.90;;;;;;5023289;28;20046;-67
2022/09/19 01:31:19;;;;;;;13.98;2.67;;;11.50;99.90;;;;;;5046440;28;20479;-67
2022/09/19 01:33:57;;;;;;;13.27;2.23;;;11.40;99.90;;;;;;5047014;28;20045;-66
2022/09/19 01:36:32;;;;;;;10.23;2.03;;;11.40;99.90;;;;;;5041035;28;20102;-66
2022/09/19 01:39:00;;;;;;;12.48;2.17;;;11.50;99.90;;;;;;5051988;28;20542;-66
2022/09/19 01:41:25;;;;;;;15.70;2.30;;;11.50;99.90;;;;;;5034180;28;20049;-66
2022/09/19 01:43:51;;;;;;;12.07;2.58;;;11.50;99.90;;;;;;5026862;28;20047;-66
2022/09/19 01:46:43;;;;;;;10.23;1.92;;;11.50;99.90;;;;;;5048381;28;20111;-66
2022/09/19 01:49:27;;;;;;;18.77;2.45;;;11.50;99.90;;;;;;5034169;28;20049;-66
2022/09/19 01:52:17;;;;;;;13.73;2.25;;;11.50;99.90;;;;;;5045327;28;20112;-66
2022/09/19 01:55:25;;;;;;;13.38;2.47;;;11.40;99.90;;;;;;5051069;28;20029;-66
2022/09/19 01:58:17;;;;;;;17.05;2.30;;;11.40;99.90;;;;;;4954557;28;20105;-66
2022/09/19 02:00:55;;;;;;;15.55;2.17;;;11.40;99.90;;;;;;5046290;28;20040;-66
2022/09/19 02:03:54;;;;;;;19.20;2.30;;;11.40;99.90;;;;;;5033679;28;20049;-66
2022/09/19 02:06:47;;;;;;;10.40;1.95;;;11.40;99.90;;;;;;5051596;28;20044;-66
2022/09/19 02:09:33;;;;;;;11.57;1.88;;;11.30;99.90;;;;;;5043007;28;20106;-66
2022/09/19 02:12:01;;;;;;;16.33;3.08;;;11.30;99.90;;;;;;5050655;28;20033;-66
2022/09/19 02:14:31;;;;;;;10.32;2.42;;;11.30;99.90;;;;;;5050769;28;20028;-66
2022/09/19 02:17:07;;;;;;;12.85;2.33;;;11.30;99.90;;;;;;5048280;28;20509;-66
2022/09/19 02:19:44;;;;;;;13.85;1.90;;;11.40;99.90;;;;;;5027210;28;20048;-66
2022/09/19 02:22:16;;;;;;;10.95;1.98;;;11.40;99.90;;;;;;5032827;28;20071;-66
2022/09/19 02:24:45;;;;;;;17.02;2.42;;;11.40;99.90;;;;;;5045592;28;20148;-66
2022/09/19 02:27:17;;;;;;;14.60;2.28;;;11.40;99.90;;;;;;5023977;28;20112;-66
2022/09/19 02:29:48;;;;;;;11.50;2.30;;;11.40;99.90;;;;;;5050191;28;20063;-66
2022/09/19 02:32:16;;;;;;;13.27;2.50;;;11.50;99.90;;;;;;5033398;28;20039;-66
2022/09/19 02:34:43;;;;;;;11.15;2.28;;;11.40;99.90;;;;;;5033324;28;20040;-66
2022/09/19 02:37:41;;;;;;;13.27;3.15;;;11.40;99.90;;;;;;5027948;28;20052;-66
2022/09/19 02:40:37;;;;;;;12.15;2.13;;;11.40;99.90;;;;;;5050977;28;20049;-66
2022/09/19 02:43:06;;;;;;;19.08;2.65;;;11.40;99.90;;;;;;5019130;28;20406;-66
2022/09/19 02:45:36;;;;;;;13.30;2.95;;;11.40;99.90;;;;;;5030477;28;20511;-66
2022/09/19 02:48:11;;;;;;;14.10;2.75;;;11.40;99.90;;;;;;5050449;28;20037;-66
2022/09/19 02:51:30;;;;;;;21.27;2.67;;;11.50;99.90;;;;;;5032602;28;20041;-66
2022/09/19 02:54:07;;;;;;;13.77;2.15;;;11.50;99.90;;;;;;5026032;28;20069;-66
2022/09/19 02:56:35;;;;;;;11.02;2.35;;;11.40;99.90;;;;;;5027842;28;20073;-66
2022/09/19 02:59:06;;;;;;;15.38;2.67;;;11.40;99.90;;;;;;5029234;28;20096;-66
2022/09/19 03:01:34;;;;;;;19.70;3.60;;;11.30;99.90;;;;;;5024583;28;20045;-66
2022/09/19 03:04:14;;;;;;;15.60;2.30;;;11.30;99.90;;;;;;5050728;28;20033;-66
2022/09/19 03:07:11;;;;;;;15.75;2.45;;;11.20;99.90;;;;;;5033273;28;20037;-66
2022/09/19 03:09:36;;;;;;;17.00;2.63;;;11.20;99.90;;;;;;5045124;28;20037;-66
2022/09/19 03:12:09;;;;;;;15.10;2.20;;;11.10;99.90;;;;;;5032537;28;20040;-66
2022/09/19 03:14:35;;;;;;;17.15;2.70;;;11.10;99.90;;;;;;5046573;28;20037;-66
2022/09/19 03:17:02;;;;;;;13.75;2.60;;;11.10;99.90;;;;;;5047792;28;20037;-66
2022/09/19 03:19:30;;;;;;;16.42;2.65;;;11.00;99.90;;;;;;5050149;28;20108;-66
2022/09/19 03:21:56;;;;;;;15.88;2.65;;;11.00;99.90;;;;;;5047280;28;20106;-66
2022/09/19 03:24:22;;;;;;;18.88;2.55;;;11.00;99.90;;;;;;5042426;28;20041;-66
2022/09/19 03:26:48;;;;;;;13.15;2.05;;;11.00;99.90;;;;;;5023724;28;20041;-66
2022/09/19 03:29:16;;;;;;;19.05;2.55;;;11.00;99.90;;;;;;5050176;28;20032;-66
2022/09/19 03:31:44;;;;;;;15.65;2.40;;;10.90;99.90;;;;;;5040670;28;20102;-66
2022/09/19 03:34:12;;;;;;;18.88;2.95;;;11.00;99.90;;;;;;5048579;28;20526;-66
2022/09/19 03:36:40;;;;;;;12.48;2.45;;;11.00;99.90;;;;;;5049603;28;20045;-66
2022/09/19 03:39:06;;;;;;;19.48;2.65;;;11.00;99.90;;;;;;5046145;28;20273;-66
2022/09/19 03:41:32;;;;;;;12.50;2.25;;;11.00;99.90;;;;;;5026906;28;20506;-66
2022/09/19 03:44:00;;;;;;;14.23;2.55;;;10.90;99.90;;;;;;5031866;28;20116;-66
2022/09/19 03:46:26;;;;;;;13.23;2.33;;;10.90;99.90;;;;;;5046299;28;20052;-66
2022/09/19 03:48:52;;;;;;;10.32;1.90;;;10.90;99.90;;;;;;5043533;28;20033;-66
2022/09/19 03:51:18;;;;;;;13.18;2.30;;;11.00;99.90;;;;;;5031828;28;20123;-66
2022/09/19 03:53:45;;;;;;;11.48;1.92;;;10.90;99.90;;;;;;5032177;28;20093;-66
2022/09/19 03:56:12;;;;;;;12.95;2.33;;;10.90;99.90;;;;;;5047260;28;20045;-66
2022/09/19 03:58:38;;;;;;;13.88;2.45;;;10.90;99.90;;;;;;5044551;28;20041;-66
2022/09/19 04:01:06;;;;;;;14.15;2.22;;;11.00;99.90;;;;;;5031736;28;20052;-66
2022/09/19 04:03:33;;;;;;;18.05;3.03;;;11.00;99.90;;;;;;5050023;28;20048;-66
2022/09/19 04:06:00;;;;;;;15.90;2.13;;;11.00;99.90;;;;;;5023321;28;20033;-66
2022/09/19 04:08:27;;;;;;;14.65;2.47;;;11.10;99.90;;;;;;5031314;28;20422;-66
2022/09/19 04:10:53;;;;;;;11.35;1.90;;;11.10;99.90;;;;;;5049965;28;20029;-66
2022/09/19 04:13:22;;;;;;;11.07;1.88;;;11.10;99.90;;;;;;5027876;28;20642;-66
2022/09/19 04:15:51;;;;;;;12.85;2.30;;;11.10;99.90;;;;;;5024323;28;20052;-66
2022/09/19 04:18:18;;;;;;;15.80;2.10;;;11.10;99.90;;;;;;5049506;28;20459;-66
2022/09/19 04:20:46;;;;;;;22.83;3.80;;;11.10;99.90;;;;;;5050007;28;20124;-66
2022/09/19 04:23:16;;;;;;;15.73;2.58;;;11.20;99.90;;;;;;5039584;28;20039;-66
2022/09/19 04:25:42;;;;;;;11.88;2.28;;;11.20;99.90;;;;;;5025325;28;20072;-66
2022/09/19 04:28:11;;;;;;;14.45;2.40;;;11.20;99.90;;;;;;5046000;28;20041;-66
2022/09/19 04:30:38;;;;;;;12.75;2.30;;;11.20;99.90;;;;;;5046223;28;20384;-66
2022/09/19 04:33:06;;;;;;;11.63;1.90;;;11.10;99.90;;;;;;5046748;28;20197;-66
2022/09/19 04:35:36;;;;;;;15.40;2.60;;;11.20;99.90;;;;;;5043280;28;20079;-66
2022/09/19 04:38:06;;;;;;;19.02;2.85;;;11.20;99.90;;;;;;5041007;28;20045;-67
2022/09/19 04:40:44;;;;;;;13.27;2.97;;;11.20;99.90;;;;;;5046025;28;20094;-66
2022/09/19 04:43:12;;;;;;;11.25;2.22;;;11.20;99.90;;;;;;5028208;28;20080;-66
2022/09/19 04:45:39;;;;;;;11.73;2.10;;;11.20;99.90;;;;;;5021445;28;20080;-66
2022/09/19 04:48:05;;;;;;;12.32;2.78;;;11.20;99.90;;;;;;5043849;28;20090;-66
2022/09/19 04:50:33;;;;;;;15.82;2.40;;;11.20;99.90;;;;;;5049702;28;20116;-66
2022/09/19 04:52:58;;;;;;;7.63;2.17;;;11.20;99.90;;;;;;5032398;28;20041;-66
2022/09/19 04:55:25;;;;;;;19.05;2.58;;;11.20;99.90;;;;;;5024330;28;20672;-66
2022/09/19 04:57:51;;;;;;;18.05;2.83;;;11.20;99.90;;;;;;5031893;28;20048;-66
2022/09/19 05:00:37;;;;;;;12.80;2.25;;;11.30;99.90;;;;;;5050234;28;20040;-66
2022/09/19 05:03:11;;;;;;;17.23;2.35;;;11.30;99.90;;;;;;5044968;28;20068;-66
2022/09/19 05:05:44;;;;;;;14.60;2.40;;;11.30;99.90;;;;;;5030516;28;20052;-65
2022/09/19 05:08:15;;;;;;;16.75;2.65;;;11.30;99.90;;;;;;5049562;28;20103;-65
2022/09/19 05:10:42;;;;;;;16.35;2.67;;;11.30;99.90;;;;;;5043232;28;20121;-66
2022/09/19 05:13:08;;;;;;;16.40;2.65;;;11.30;99.90;;;;;;5019371;28;20163;-66
2022/09/19 05:15:35;;;;;;;20.05;2.80;;;11.30;99.90;;;;;;5049175;28;20041;-66
2022/09/19 05:18:00;;;;;;;13.85;2.50;;;11.30;99.90;;;;;;5049788;28;20120;-65
2022/09/19 05:20:26;;;;;;;14.95;2.42;;;11.30;99.90;;;;;;5025899;28;20135;-65
2022/09/19 05:22:58;;;;;;;15.18;2.42;;;11.30;99.90;;;;;;5025002;28;20041;-66
2022/09/19 05:25:29;;;;;;;12.38;3.22;;;11.30;99.90;;;;;;5031320;28;20033;-66
2022/09/19 05:28:05;;;;;;;17.67;2.53;;;11.30;99.90;;;;;;5027350;28;20069;-66
2022/09/19 05:30:32;;;;;;;18.77;2.85;;;11.40;99.90;;;;;;5040394;28;20578;-66
2022/09/19 05:32:59;;;;;;;20.35;2.75;;;11.30;99.90;;;;;;5048662;28;20036;-66
2022/09/19 05:35:26;;;;;;;19.02;3.58;;;11.30;99.90;;;;;;5049400;28;20049;-66
2022/09/19 05:37:52;;;;;;;15.32;2.75;;;11.40;99.90;;;;;;5022863;28;20077;-66
2022/09/19 05:40:18;;;;;;;14.57;2.67;;;11.30;99.90;;;;;;5042325;28;20076;-66
2022/09/19 05:42:46;;;;;;;16.58;2.42;;;11.30;99.90;;;;;;5026547;28;20197;-66
2022/09/19 05:45:13;;;;;;;14.15;2.20;;;11.30;99.90;;;;;;5038736;28;20116;-64
2022/09/19 05:47:39;;;;;;;13.77;2.95;;;11.30;99.90;;;;;;5046772;28;20048;-66
2022/09/19 05:50:10;;;;;;;11.25;2.30;;;11.40;99.90;;;;;;5030649;28;20126;-65
2022/09/19 05:55:25;;;;;;;14.68;2.50;;;11.40;99.90;;;;;;5048148;28;20045;-66
2022/09/19 05:57:53;;;;;;;13.35;2.40;;;11.50;99.90;;;;;;5047352;28;20037;-66
2022/09/19 06:00:20;;;;;;;12.10;2.47;;;11.50;99.90;;;;;;5028179;28;20053;-66
2022/09/19 06:03:00;;;;;;;12.98;2.80;;;11.50;99.90;;;;;;5030360;28;20159;-66
2022/09/19 06:05:28;;;;;;;12.70;2.40;;;11.50;99.90;;;;;;5033549;28;20560;-66
2022/09/19 06:07:57;;;;;;;10.63;2.17;;;11.50;99.90;;;;;;5051285;28;20411;-66
2022/09/19 06:10:24;;;;;;;17.08;2.88;;;11.60;99.90;;;;;;5046683;28;20045;-66
2022/09/19 06:12:52;;;;;;;13.05;2.22;;;11.50;99.90;;;;;;5050635;28;20048;-66
2022/09/19 06:15:17;;;;;;;11.55;2.30;;;11.50;99.90;;;;;;5029609;28;20407;-66
2022/09/19 06:17:45;;;;;;;11.73;2.20;;;11.40;99.90;;;;;;5015553;28;20048;-66
2022/09/19 06:20:14;;;;;;;13.55;2.33;;;11.40;99.90;;;;;;5035694;28;20052;-66
2022/09/19 06:22:40;;;;;;;13.82;1.92;;;11.30;99.90;;;;;;5049939;28;20037;-67
2022/09/19 06:25:06;;;;;;;14.05;2.25;;;11.30;99.90;;;;;;5051394;28;20059;-65
2022/09/19 06:27:32;;;;;;;15.57;2.63;;;11.30;99.90;;;;;;5043023;28;20099;-66
2022/09/19 06:29:58;;;;;;;16.02;2.55;;;11.30;99.90;;;;;;5043186;28;20037;-66
2022/09/19 06:32:24;;;;;;;14.20;2.35;;;11.30;99.90;;;;;;5051127;28;20558;-66
2022/09/19 06:34:50;;;;;;;11.73;2.30;;;11.30;99.90;;;;;;5048244;28;20490;-66
2022/09/19 06:37:16;;;;;;;11.00;2.25;;;11.40;99.90;;;;;;5050357;28;20091;-66
2022/09/19 06:39:42;;;;;;;14.15;2.03;;;11.50;99.90;;;;;;5040034;28;20041;-67
2022/09/19 06:42:08;;;;;;;8.90;2.00;;;11.50;99.90;;;;;;5039105;28;20025;-66
2022/09/19 06:44:34;;;;;;;16.58;2.00;;;11.70;99.90;;;;;;5051198;28;20514;-65
2022/09/19 06:46:59;;;;;;;14.05;1.80;;;11.70;99.90;;;;;;5051402;28;20044;-66
2022/09/19 06:49:27;;;;;;;12.20;2.35;;;11.90;99.90;;;;;;5043921;28;20441;-66
2022/09/19 06:51:54;;;;;;;10.68;2.00;;;12.00;99.90;;;;;;5046255;28;20029;-66
2022/09/19 06:54:22;;;;;;;12.45;1.98;;;12.00;99.90;;;;;;5043565;28;20029;-66
2022/09/19 06:56:49;;;;;;;13.43;2.13;;;12.10;99.90;;;;;;5050810;28;20041;-66
2022/09/19 06:59:15;;;;;;;11.45;2.45;;;12.10;99.90;;;;;;5050961;28;20039;-66
2022/09/19 07:01:40;;;;;;;17.92;2.25;;;12.10;99.90;;;;;;5024689;28;20038;-67
2022/09/19 07:04:06;;;;;;;10.60;1.92;;;12.20;99.90;;;;;;5038163;28;20040;-66
2022/09/19 07:06:34;;;;;;;15.77;2.30;;;12.20;99.90;;;;;;5050328;28;20511;-67
2022/09/19 07:09:02;;;;;;;15.32;2.55;;;12.10;99.90;;;;;;5042269;28;20048;-66
2022/09/19 07:11:28;;;;;;;11.23;2.70;;;12.20;99.90;;;;;;5047110;28;20411;-67
2022/09/19 07:13:54;;;;;;;13.73;2.50;;;12.20;99.90;;;;;;5050951;28;20037;-66
2022/09/19 07:16:20;;;;;;;10.70;2.00;;;12.20;99.90;;;;;;5051128;28;20048;-67
2022/09/19 07:18:45;;;;;;;11.40;2.05;;;12.20;99.90;;;;;;5038671;28;20040;-66
2022/09/19 07:21:11;;;;;;;14.88;2.20;;;12.20;99.90;;;;;;5048693;28;20037;-66
2022/09/19 07:23:37;;;;;;;11.20;2.00;;;12.30;99.90;;;;;;5032571;28;20044;-65
2022/09/19 07:26:03;;;;;;;9.43;1.77;;;12.30;99.90;;;;;;5044698;28;20130;-67
2022/09/19 07:28:30;;;;;;;15.60;2.55;;;12.40;99.90;;;;;;5038570;28;20046;-66
2022/09/19 07:30:58;;;;;;;7.30;2.17;;;12.50;99.90;;;;;;5042189;28;20040;-66
2022/09/19 07:33:24;;;;;;;10.10;1.90;;;12.60;99.90;;;;;;5050421;28;20033;-67
2022/09/19 07:35:53;;;;;;;9.43;2.42;;;12.70;99.90;;;;;;5047597;28;20044;-66
2022/09/19 07:38:20;;;;;;;9.30;1.83;;;12.80;99.90;;;;;;5037635;28;20041;-66
2022/09/19 07:40:46;;;;;;;13.23;2.05;;;12.70;99.90;;;;;;5032078;28;20033;-66
2022/09/19 07:43:14;;;;;;;11.82;2.30;;;12.70;99.90;;;;;;5018306;28;20037;-66
2022/09/19 07:45:44;;;;;;;8.23;1.77;;;12.70;99.90;;;;;;5029530;28;20036;-66
2022/09/19 07:48:10;;;;;;;9.98;2.10;;;12.60;99.90;;;;;;5018359;28;20120;-67
2022/09/19 07:50:36;;;;;;;8.48;1.80;;;12.60;99.90;;;;;;5047892;28;20068;-66
2022/09/19 07:53:13;;;;;;;12.57;2.10;;;12.70;99.90;;;;;;5032252;28;20045;-67
2022/09/19 07:55:41;;;;;;;8.18;1.77;;;12.80;99.90;;;;;;5043463;28;20540;-67
2022/09/19 07:58:06;;;;;;;11.15;1.80;;;12.80;99.90;;;;;;5027160;28;20052;-67
2022/09/19 08:00:34;;;;;;;11.88;1.90;;;12.90;99.90;;;;;;5035648;28;20052;-66
2022/09/19 08:03:11;;;;;;;13.57;1.88;;;13.00;99.90;;;;;;5049360;28;20041;-66
2022/09/19 08:05:40;;;;;;;11.90;2.00;;;13.10;99.90;;;;;;5049953;28;20047;-67
2022/09/19 08:08:09;;;;;;;10.45;1.92;;;13.20;99.90;;;;;;5047019;28;20067;-67
2022/09/19 08:10:35;;;;;;;11.75;2.10;;;13.30;99.90;;;;;;5047523;28;20510;-67
2022/09/19 08:13:02;;;;;;;10.07;1.63;;;13.30;99.90;;;;;;5049836;28;20041;-67
2022/09/19 08:15:29;;;;;;;14.10;2.38;;;13.40;99.90;;;;;;5039772;28;20041;-67
2022/09/19 08:18:06;;;;;;;11.38;2.03;;;13.50;99.90;;;;;;5023111;28;20045;-67
2022/09/19 08:20:35;;;;;;;15.52;2.30;;;13.70;99.90;;;;;;5049532;28;20037;-67
2022/09/19 08:23:06;;;;;;;14.45;2.13;;;13.90;99.90;;;;;;5028214;28;20055;-66
2022/09/19 08:25:34;;;;;;;;;;;14.10;99.90;;;;;;5051061;28;20041;-66
2022/09/19 08:28:03;;;;;;;17.63;2.35;;;14.30;99.90;;;;;;5052922;28;19921;-66
2022/09/19 08:30:29;;;;;;;11.95;1.92;;;14.40;99.90;;;;;;5036149;28;20048;-66
2022/09/19 08:32:56;;;;;;;14.15;1.98;;;14.40;99.90;;;;;;5044564;28;20029;-66
2022/09/19 08:35:23;;;;;;;10.43;1.90;;;14.40;99.90;;;;;;5053096;28;20041;-66
2022/09/19 08:38:00;;;;;;;11.18;2.40;;;14.40;99.90;;;;;;5053482;28;20044;-66
2022/09/19 08:40:30;;;;;;;9.15;1.60;;;14.40;99.90;;;;;;5053518;28;20552;-66
2022/09/19 08:43:13;;;;;;;12.53;2.00;;;14.30;99.90;;;;;;5044028;28;20033;-66
2022/09/19 08:46:03;;;;;;;14.00;3.05;;;14.30;99.90;;;;;;5052709;28;20406;-66
2022/09/19 08:48:49;;;;;;;11.45;1.83;;;14.20;99.90;;;;;;5046864;28;20056;-66
2022/09/19 08:51:44;;;;;;;14.90;2.22;;;14.20;99.90;;;;;;5042148;28;20112;-66
2022/09/19 08:54:32;;;;;;;11.98;2.40;;;14.20;99.90;;;;;;5053164;28;20045;-66
2022/09/19 08:56:59;;;;;;;11.80;2.10;;;14.10;99.90;;;;;;5050427;28;20048;-66
2022/09/19 08:59:30;;;;;;;14.75;2.30;;;14.10;99.90;;;;;;5007358;28;20492;-66
2022/09/19 09:02:17;;;;;;;13.27;2.20;;;14.20;99.90;;;;;;5034400;28;20048;-66
2022/09/19 09:04:42;;;;;;;13.40;2.10;;;14.40;99.90;;;;;;5050316;28;20048;-66
2022/09/19 09:07:11;;;;;;;12.75;1.73;;;14.60;99.90;;;;;;5029436;28;20037;-66
2022/09/19 09:10:14;;;;;;;16.40;2.30;;;14.80;99.90;;;;;;5034357;28;20055;-66
2022/09/19 09:13:05;;;;;;;10.90;2.10;;;14.90;99.90;;;;;;5033462;28;20091;-67
2022/09/19 09:15:50;;;;;;;17.55;1.95;;;14.90;99.90;;;;;;5035402;28;20051;-66
2022/09/19 09:18:50;;;;;;;11.10;2.47;;;15.00;99.90;;;;;;5050122;28;20214;-66
2022/09/19 09:21:41;;;;;;;11.48;1.70;;;15.20;99.90;;;;;;5044625;28;20103;-66
2022/09/19 09:24:13;;;;;;;;;;;15.30;99.90;;;;;;5050280;28;20084;-66
2022/09/19 09:26:40;;;;;;;;;;;15.50;99.90;;;;;;5052654;28;20350;-66
2022/09/19 09:29:17;;;;;;;6.28;1.40;;;15.60;99.90;;;;;;5052682;28;20568;-66
2022/09/19 09:32:30;;;;;;;9.93;1.77;;;15.60;99.90;;;;;;5048024;28;20068;-66
2022/09/19 09:35:02;;;;;;;14.23;2.00;;;15.70;99.90;;;;;;5048110;28;20044;-67
2022/09/19 09:37:41;;;;;;;7.47;1.58;;;15.90;99.90;;;;;;5034309;28;20106;-67
2022/09/19 09:43:07;;;;;;;10.10;1.50;;;16.50;99.90;;;;;;5045584;28;20405;-67
2022/09/19 09:45:46;;;;;;;7.38;1.50;;;16.30;99.90;;;;;;5034576;28;20120;-67
2022/09/19 09:48:24;;;;;;;5.75;1.20;;;15.80;99.90;;;;;;5046906;28;20072;-67
2022/09/19 09:51:09;;;;;;;6.45;1.30;;;15.30;99.90;;;;;;5051442;28;20554;-67
2022/09/19 09:53:44;;;;;;;4.25;1.30;;;14.90;99.90;;;;;;5051442;28;20045;-67
2022/09/19 09:56:19;;;;;;;7.97;1.15;;;14.50;99.90;;;;;;5047567;28;20519;-67
2022/09/19 09:59:06;;;;;;;4.13;1.00;;;14.40;99.90;;;;;;5051391;28;20041;-66
2022/09/19 10:05:08;;;;;;;3.85;1.13;;;14.10;99.90;;;;;;5041075;28;20045;-67
2022/09/19 10:07:58;;;;;;;7.80;1.20;;;14.10;99.90;;;;;;5049166;28;20134;-67
2022/09/19 10:10:25;;;;;;;7.35;1.40;;;14.10;99.90;;;;;;5051682;28;20041;-66
2022/09/19 10:12:55;;;;;;;9.85;1.65;;;14.00;99.90;;;;;;5042089;28;20025;-67
2022/09/19 10:15:23;;;;;;;6.13;1.35;;;14.00;99.90;;;;;;5051616;28;20065;-67
2022/09/19 10:17:57;;;;;;;5.28;1.33;;;14.20;99.90;;;;;;5033889;28;20095;-66
2022/09/19 10:20:32;;;;;;;7.55;1.63;;;14.40;99.90;;;;;;5037558;28;20540;-67
2022/09/19 10:22:57;;;;;;;7.32;1.67;;;14.60;99.90;;;;;;5045043;28;20055;-67
2022/09/19 10:25:26;;;;;;;7.18;1.80;;;14.80;99.90;;;;;;5048930;28;20044;-67
2022/09/19 10:27:53;;;;;;;7.93;1.65;;;14.90;99.90;;;;;;5039918;28;20037;-67
2022/09/19 10:30:27;;;;;;;10.77;1.70;;;15.00;99.90;;;;;;5051125;28;20043;-66
2022/09/19 10:32:54;;;;;;;6.38;1.88;;;15.10;99.90;;;;;;5051193;28;20043;-66
2022/09/19 10:35:36;;;;;;;12.02;2.35;;;15.30;99.90;;;;;;5051231;28;20558;-66
2022/09/19 10:38:04;;;;;;;12.88;2.42;;;15.50;99.90;;;;;;5036642;28;20040;-66
2022/09/19 10:40:32;;;;;;;16.10;2.30;;;15.60;99.90;;;;;;5041974;28;20048;-67
2022/09/19 10:42:59;;;;;;;11.63;1.73;;;15.80;99.90;;;;;;5046081;28;20090;-66
2022/09/19 10:45:36;;;;;;;9.48;1.83;;;16.10;99.90;;;;;;5022235;28;20044;-66
2022/09/19 10:48:26;;;;;;;12.77;2.03;;;16.40;99.90;;;;;;5050239;28;20047;-67
2022/09/19 10:50:53;;;;;;;10.32;1.50;;;16.60;99.90;;;;;;5032861;28;20097;-66
2022/09/19 10:53:25;;;;;;;3.70;1.10;;;16.70;99.90;;;;;;5029484;28;20093;-66
2022/09/19 10:55:56;;;;;;;7.03;1.58;;;16.50;99.90;;;;;;5035897;28;20032;-66
2022/09/19 10:58:27;;;;;;;6.40;1.60;;;16.20;99.90;;;;;;5049720;28;20049;-66
2022/09/19 11:00:55;;;;;;;4.28;1.13;;;15.80;99.90;;;;;;5047164;28;20411;-67
2022/09/19 11:03:30;;;;;;;8.38;1.55;;;15.60;99.90;;;;;;5038644;28;20056;-67
2022/09/19 11:06:03;;;;;;;13.68;2.20;;;15.50;99.90;;;;;;5047561;28;20037;-68
2022/09/19 11:08:30;;;;;;;9.27;1.58;;;15.50;99.90;;;;;;5031639;28;20495;-66
2022/09/19 11:10:56;;;;;;;8.70;2.00;;;15.60;99.90;;;;;;5030458;28;20079;-67
2022/09/19 11:13:22;;;;;;;8.68;1.35;;;15.60;99.90;;;;;;5048123;28;20051;-67
2022/09/19 11:16:11;;;;;;;6.70;1.65;;;15.60;99.90;;;;;;5050228;28;20076;-67
2022/09/19 11:19:10;;;;;;;8.25;1.85;;;15.60;99.90;;;;;;5043821;28;20048;-67
2022/09/19 11:22:07;;;;;;;6.07;1.08;;;15.60;99.90;;;;;;5013293;28;20411;-67
2022/09/19 11:25:10;;;;;;;6.75;1.45;;;15.50;99.90;;;;;;5050323;28;20450;-67
2022/09/19 11:27:55;;;;;;;7.00;1.42;;;15.80;99.90;;;;;;5005837;28;20053;-67
2022/09/19 11:30:24;;;;;;;6.75;1.30;;;15.70;99.90;;;;;;5043691;28;20049;-67
2022/09/19 11:33:00;;;;;;;9.63;1.67;;;15.90;99.90;;;;;;5049753;28;20035;-67
2022/09/19 11:35:32;;;;;;;7.53;1.55;;;16.10;99.90;;;;;;5044338;28;20049;-65
2022/09/19 11:38:32;;;;;;;10.75;1.73;;;16.00;99.90;;;;;;5035482;28;20094;-66
2022/09/19 11:41:29;;;;;;;7.50;1.50;;;15.70;99.90;;;;;;5050061;28;20804;-66
2022/09/19 11:44:04;;;;;;;8.23;1.63;;;15.50;99.90;;;;;;5039545;28;20454;-66
2022/09/19 11:47:06;;;;;;;15.55;2.25;;;15.40;99.90;;;;;;5048041;28;20041;-67
2022/09/19 11:49:41;;;;;;;10.20;2.10;;;15.40;99.90;;;;;;5006531;28;20052;-67
2022/09/19 11:52:31;;;;;;;9.65;1.65;;;15.30;99.90;;;;;;5039423;28;20404;-66
2022/09/19 11:55:13;;;;;;;8.98;1.88;;;15.20;99.90;;;;;;5037870;28;20037;-66
2022/09/19 11:57:42;;;;;;;10.25;2.05;;;15.20;99.90;;;;;;5040429;28;20512;-67
2022/09/19 12:00:23;;;;;;;13.20;2.55;;;15.30;99.90;;;;;;5053980;28;20047;-68
2022/09/19 12:03:24;;;;;;;13.70;2.53;;;15.30;99.90;;;;;;5028946;28;20126;-67
2022/09/19 12:05:56;;;;;;;11.52;2.30;;;15.30;99.90;;;;;;5045676;28;20046;-67
2022/09/19 12:08:28;;;;;;;13.48;2.67;;;15.20;99.90;;;;;;5030082;28;20419;-65
2022/09/19 12:11:23;;;;;;;8.38;1.40;;;15.10;99.90;;;;;;5036826;28;20040;-66
2022/09/19 12:13:57;;;;;;;10.82;1.67;;;14.60;99.90;;;;;;5053535;28;20033;-66
2022/09/19 12:16:36;;;;;;;8.88;2.00;;;13.60;99.90;;;;;;5031471;28;20053;-66
2022/09/19 12:19:09;;;;;;;7.05;1.40;;;12.80;99.90;;;;;;5009841;28;20041;-65
2022/09/19 12:21:44;;;;;;;5.53;1.40;;;12.40;99.90;;;;;;5043291;22;20045;-66
2022/09/19 12:27:12;;;;;;;14.07;1.40;;;12.00;99.90;;;;;;5036096;28;20122;-65
2022/09/19 12:29:59;;;;;;;6.65;1.33;;;12.00;99.90;;;;;;5051256;28;20041;-65
2022/09/19 12:32:40;;;;;;;6.20;1.45;;;12.10;99.90;;;;;;5031161;28;20161;-65
2022/09/19 12:35:34;;;;;;;6.05;1.30;;;12.10;99.90;;;;;;5038752;28;20097;-66
2022/09/19 12:38:16;;;;;;;3.50;1.45;;;12.20;99.90;;;;;;5049494;28;20041;-65
2022/09/19 12:41:07;;;;;;;9.65;1.63;;;12.30;99.90;;;;;;5053447;28;20049;-66
2022/09/19 12:43:58;;;;;;;7.53;1.63;;;12.60;99.90;;;;;;5050748;28;20052;-66
2022/09/19 12:46:38;;;;;;;10.10;1.67;;;12.80;99.90;;;;;;5052652;28;20052;-65
2022/09/19 12:49:16;;;;;;;9.82;2.00;;;13.10;99.90;;;;;;5052925;28;20045;-66
2022/09/19 12:52:00;;;;;;;7.90;1.50;;;13.30;99.90;;;;;;5048711;28;20043;-65
2022/09/19 12:54:32;;;;;;;5.07;1.42;;;13.80;99.90;;;;;;5034880;28;20099;-66
2022/09/19 12:57:11;;;;;;;6.68;1.60;;;14.10;99.90;;;;;;5034730;28;20048;-65
2022/09/19 12:59:37;;;;;;;9.70;1.50;;;14.20;99.90;;;;;;5041845;28;20438;-66
2022/09/19 13:02:44;;;;;;;8.88;1.70;;;14.40;99.90;;;;;;5047723;28;20112;-66
2022/09/19 13:05:33;;;;;;;6.75;1.42;;;14.40;99.90;;;;;;5042914;28;20301;-66
2022/09/19 13:08:05;;;;;;;8.77;1.75;;;14.50;99.90;;;;;;5037571;28;20048;-65
2022/09/19 13:10:40;;;;;;;11.88;2.00;;;14.60;99.90;;;;;;5041164;28;20038;-67
2022/09/19 13:13:32;;;;;;;7.63;1.83;;;14.60;99.90;;;;;;5041796;28;20033;-66
2022/09/19 13:16:04;;;;;;;7.13;1.95;;;14.70;99.90;;;;;;5029196;28;20072;-66
2022/09/19 13:23:30;;;;;;;9.15;2.15;;;14.90;99.90;;;;;;5052385;28;20471;-65
2022/09/19 13:24:38;;;;;;;10.07;2.20;;;15.00;99.90;;;;;;5052497;28;20052;-66
2022/09/19 13:27:04;;;;;;;10.60;2.25;;;15.10;99.90;;;;;;5038779;28;20044;-68
2022/09/19 13:29:30;;;;;;;7.82;1.77;;;15.30;99.90;;;;;;5014889;28;21061;-67
2022/09/19 13:31:59;;;;;;;10.88;2.17;;;15.40;99.90;;;;;;5046458;28;20457;-67
2022/09/19 13:34:33;;;;;;;10.95;2.10;;;15.30;99.90;;;;;;5043984;28;20175;-67
2022/09/19 13:37:19;;;;;;;20.63;2.20;;;15.30;99.90;;;;;;5052400;28;20044;-69